createdAt,value
2018-11-02T00:01:49.257Z,99312.04
2018-11-02T00:04:18.712Z,99320.26
2018-11-02T00:06:48.297Z,99327.20
2018-11-02T00:09:23.205Z,99329.07
2018-11-02T00:11:54.280Z,99323.86
2018-11-02T00:14:22.900Z,99328.68
2018-11-02T00:16:53.306Z,99325.86
2018-11-02T00:19:27.720Z,99327.17
2018-11-02T00:21:56.905Z,99330.72
2018-11-02T00:24:26.625Z,99334.98
2018-11-02T00:26:56.322Z,99336.52
2018-11-02T00:29:26.261Z,99347.44
2018-11-02T00:31:55.911Z,99352.67
2018-11-02T00:34:24.445Z,99352.23
2018-11-02T00:36:52.955Z,99363.34
2018-11-02T00:39:22.629Z,99364.94
2018-11-02T00:41:54.773Z,99375.14
2018-11-02T00:44:23.590Z,99379.06
2018-11-02T00:46:53.380Z,99381.69
2018-11-02T00:49:23.179Z,99385.78
2018-11-02T00:51:51.674Z,99389.23
2018-11-02T00:54:20.977Z,99395.14
2018-11-02T00:56:51.197Z,99390.34
2018-11-02T00:59:20.589Z,99387.53
2018-11-02T01:01:50.411Z,99395.94
2018-11-02T01:04:19.081Z,99395.03
2018-11-02T01:06:48.713Z,99402.97
2018-11-02T01:09:18.287Z,99394.44
2018-11-02T01:11:47.913Z,99398.95
2018-11-02T01:14:17.536Z,99398.70
2018-11-02T01:16:46.336Z,99398.95
2018-11-02T01:19:16.020Z,99408.68
2018-11-02T01:21:45.723Z,99406.30
2018-11-02T01:24:14.755Z,99406.16
2018-11-02T01:26:43.255Z,99409.63
2018-11-02T01:29:11.801Z,99406.37
2018-11-02T01:31:41.989Z,99409.75
2018-11-02T01:34:10.548Z,99420.98
2018-11-02T01:36:40.580Z,99421.77
2018-11-02T01:39:10.154Z,99424.47
2018-11-02T01:41:39.689Z,99429.63
2018-11-02T01:44:10.306Z,99428.84
2018-11-02T01:46:40.692Z,99428.09
2018-11-02T01:49:10.036Z,99440.43
2018-11-02T01:51:38.654Z,99432.18
2018-11-02T01:54:07.615Z,99428.41
2018-11-02T01:56:38.473Z,99423.60
2018-11-02T01:59:07.801Z,99422.14
2018-11-02T02:01:36.649Z,99419.91
2018-11-02T02:04:06.357Z,99417.06
2018-11-02T02:06:35.957Z,99418.64
2018-11-02T02:09:08.740Z,99418.40
2018-11-02T02:11:38.248Z,99411.38
2018-11-02T02:14:06.861Z,99419.55
2018-11-02T02:16:36.174Z,99420.11
2018-11-02T02:19:05.940Z,99413.03
2018-11-02T02:21:35.464Z,99412.02
2018-11-02T02:24:04.845Z,99415.89
2018-11-02T02:26:33.753Z,99408.52
2018-11-02T02:29:02.458Z,99406.43
2018-11-02T02:31:31.026Z,99409.28
2018-11-02T02:33:59.564Z,99415.00
2018-11-02T02:36:28.142Z,99413.45
2018-11-02T02:38:56.669Z,99417.69
2018-11-02T02:41:25.259Z,99423.44
2018-11-02T02:43:53.790Z,99425.52
2018-11-02T02:46:22.364Z,99422.06
2018-11-02T02:48:50.884Z,99429.21
2018-11-02T02:51:19.574Z,99421.27
2018-11-02T02:53:48.097Z,99424.21
2018-11-02T02:56:16.660Z,99431.52
2018-11-02T02:59:16.084Z,99428.00
2018-11-02T03:01:44.652Z,99433.38
2018-11-02T03:04:13.182Z,99434.61
2018-11-02T03:06:41.773Z,99437.35
2018-11-02T03:09:10.332Z,99435.47
2018-11-02T03:11:38.916Z,99437.22
2018-11-02T03:14:07.470Z,99435.84
2018-11-02T03:16:36.040Z,99436.24
2018-11-02T03:19:04.616Z,99447.69
2018-11-02T03:21:33.200Z,99445.16
2018-11-02T03:24:01.768Z,99452.16
2018-11-02T03:26:30.364Z,99454.92
2018-11-02T03:28:58.906Z,99453.22
2018-11-02T03:31:27.464Z,99460.39
2018-11-02T03:33:56.012Z,99471.25
2018-11-02T03:36:24.585Z,99472.44
2018-11-02T03:38:53.112Z,99472.44
2018-11-02T03:41:21.672Z,99478.75
2018-11-02T03:43:50.289Z,99486.70
2018-11-02T03:46:18.872Z,99494.16
2018-11-02T03:48:47.398Z,99503.93
2018-11-02T03:51:16.008Z,99518.07
2018-11-02T03:53:44.582Z,99512.70
2018-11-02T03:56:13.169Z,99516.55
2018-11-02T03:58:41.721Z,99524.47
2018-11-02T04:01:10.352Z,99522.76
2018-11-02T04:03:39.878Z,99521.59
2018-11-02T04:06:08.620Z,99534.39
2018-11-02T04:08:37.161Z,99532.38
2018-11-02T04:11:05.904Z,99531.73
2018-11-02T04:13:34.452Z,99534.72
2018-11-02T04:16:03.034Z,99539.74
2018-11-02T04:18:37.504Z,99540.80
2018-11-02T04:21:12.203Z,99537.28
2018-11-02T04:23:47.141Z,99536.47
2018-11-02T04:26:23.069Z,99548.32
2018-11-02T04:28:58.068Z,99555.87
2018-11-02T04:31:32.767Z,99561.36
2018-11-02T04:34:01.683Z,99573.98
2018-11-02T04:36:30.257Z,99575.88
2018-11-02T04:38:58.865Z,99586.23
2018-11-02T04:41:27.429Z,99590.42
2018-11-02T04:43:56.013Z,99589.03
2018-11-02T04:46:24.576Z,99593.78
2018-11-02T04:48:53.112Z,99596.48
2018-11-02T04:51:21.669Z,99591.45
2018-11-02T04:53:54.149Z,99595.95
2018-11-02T04:56:23.150Z,99600.09
2018-11-02T04:58:51.781Z,99603.00
2018-11-02T05:01:20.792Z,99610.13
2018-11-02T05:03:49.433Z,99607.84
2018-11-02T05:06:17.992Z,99619.33
2018-11-02T05:08:46.572Z,99619.38
2018-11-02T05:11:15.823Z,99628.45
2018-11-02T05:13:44.354Z,99640.55
2018-11-02T05:16:13.212Z,99644.70
2018-11-02T05:18:41.780Z,99648.56
2018-11-02T05:21:10.487Z,99655.38
2018-11-02T05:23:39.300Z,99653.73
2018-11-02T05:26:08.323Z,99656.64
2018-11-02T05:28:36.886Z,99656.21
2018-11-02T05:31:05.665Z,99654.62
2018-11-02T05:33:34.274Z,99657.36
2018-11-02T05:36:02.829Z,99656.74
2018-11-02T05:38:31.456Z,99661.38
2018-11-02T05:40:59.993Z,99661.38
2018-11-02T05:43:28.561Z,99658.05
2018-11-02T05:45:57.153Z,99657.95
2018-11-02T05:48:25.732Z,99657.95
2018-11-02T05:50:54.353Z,99655.94
2018-11-02T05:53:22.933Z,99654.62
2018-11-02T05:55:51.674Z,99656.14
2018-11-02T05:58:20.265Z,99660.07
2018-11-02T06:00:48.875Z,99666.06
2018-11-02T06:03:17.465Z,99677.22
2018-11-02T06:05:46.016Z,99669.45
2018-11-02T06:08:14.629Z,99678.34
2018-11-02T06:10:43.180Z,99676.02
2018-11-02T06:13:11.774Z,99680.17
2018-11-02T06:15:40.316Z,99691.35
2018-11-02T06:18:08.892Z,99681.76
2018-11-02T06:20:37.440Z,99689.12
2018-11-02T06:23:06.445Z,99698.53
2018-11-02T06:25:34.988Z,99702.70
2018-11-02T06:28:03.581Z,99701.91
2018-11-02T06:30:32.164Z,99712.89
2018-11-02T06:33:00.713Z,99711.52
2018-11-02T06:35:29.264Z,99716.30
2018-11-02T06:37:57.828Z,99716.68
2018-11-02T06:40:26.360Z,99713.80
2018-11-02T06:42:54.936Z,99716.63
2018-11-02T06:45:23.474Z,99725.91
2018-11-02T06:47:52.060Z,99724.34
2018-11-02T06:50:20.613Z,99739.90
2018-11-02T06:52:49.180Z,99738.42
2018-11-02T06:55:23.561Z,99747.13
2018-11-02T06:57:58.919Z,99752.50
2018-11-02T07:00:34.169Z,99765.95
2018-11-02T07:03:09.255Z,99772.30
2018-11-02T07:05:43.297Z,99773.14
2018-11-02T07:08:12.827Z,99774.45
2018-11-02T07:10:42.135Z,99781.13
2018-11-02T07:13:10.972Z,99782.68
2018-11-02T07:15:39.977Z,99791.92
2018-11-02T07:18:08.805Z,99788.21
2018-11-02T07:20:37.466Z,99783.18
2018-11-02T07:23:09.190Z,99784.86
2018-11-02T07:25:37.768Z,99790.80
2018-11-02T07:28:06.978Z,99796.45
2018-11-02T07:30:35.552Z,99792.39
2018-11-02T07:33:04.125Z,99799.30
2018-11-02T07:35:32.697Z,99802.70
2018-11-02T07:38:01.490Z,99800.63
2018-11-02T07:40:30.074Z,99806.92
2018-11-02T07:42:59.547Z,99803.35
2018-11-02T07:45:28.264Z,99803.61
2018-11-02T07:47:56.806Z,99804.67
2018-11-02T07:50:25.391Z,99817.55
2018-11-02T07:52:55.161Z,99823.61
2018-11-02T07:55:23.796Z,99833.77
2018-11-02T07:57:52.362Z,99837.88
2018-11-02T08:00:20.961Z,99838.47
2018-11-02T08:02:49.520Z,99844.62
2018-11-02T08:05:19.616Z,99845.21
2018-11-02T08:07:50.446Z,99848.86
2018-11-02T08:10:21.280Z,99848.87
2018-11-02T08:12:54.483Z,99851.64
2018-11-02T08:15:29.670Z,99858.72
2018-11-02T08:18:00.096Z,99861.34
2018-11-02T08:20:28.700Z,99864.47
2018-11-02T08:22:57.240Z,99866.95
2018-11-02T08:25:26.483Z,99870.25
2018-11-02T08:27:55.037Z,99869.98
2018-11-02T08:30:24.689Z,99867.68
2018-11-02T08:32:53.225Z,99875.19
2018-11-02T08:35:21.801Z,99882.42
2018-11-02T08:37:50.365Z,99881.53
2018-11-02T08:40:18.949Z,99885.62
2018-11-02T08:42:47.753Z,99888.42
2018-11-02T08:45:16.334Z,99887.91
2018-11-02T08:47:44.866Z,99883.98
2018-11-02T08:50:13.671Z,99890.17
2018-11-02T08:52:42.645Z,99896.77
2018-11-02T08:55:11.227Z,99898.95
2018-11-02T08:57:39.893Z,99901.45
2018-11-02T09:00:10.316Z,99903.47
2018-11-02T09:02:38.844Z,99905.36
2018-11-02T09:05:17.236Z,99909.11
2018-11-02T09:07:53.102Z,99913.83
2018-11-02T09:10:28.940Z,99912.61
2018-11-02T09:12:58.177Z,99908.42
2018-11-02T09:15:26.752Z,99904.05
2018-11-02T09:17:55.589Z,99904.86
2018-11-02T09:20:28.150Z,99897.28
2018-11-02T09:22:56.930Z,99905.70
2018-11-02T09:25:25.873Z,99902.11
2018-11-02T09:27:54.531Z,99903.66
2018-11-02T09:30:23.030Z,99905.23
2018-11-02T09:32:51.582Z,99917.95
2018-11-02T09:35:20.173Z,99922.96
2018-11-02T09:37:48.726Z,99918.42
2018-11-02T09:40:17.428Z,99921.48
2018-11-02T09:42:46.287Z,99926.58
2018-11-02T09:45:15.317Z,99934.19
2018-11-02T09:47:45.074Z,99927.73
2018-11-02T09:50:13.893Z,99930.58
2018-11-02T09:52:42.447Z,99936.62
2018-11-02T09:55:12.992Z,99938.75
2018-11-02T09:57:42.217Z,99941.06
2018-11-02T10:00:11.573Z,99944.22
2018-11-02T10:02:40.212Z,99942.77
2018-11-02T10:05:11.008Z,99948.55
2018-11-02T10:07:40.625Z,99946.65
2018-11-02T10:10:10.771Z,99951.20
2018-11-02T10:12:39.412Z,99947.75
2018-11-02T10:15:13.724Z,99947.68
2018-11-02T10:17:42.332Z,99944.28
2018-11-02T10:20:11.588Z,99944.52
2018-11-02T10:22:40.219Z,99946.85
2018-11-02T10:25:11.484Z,99945.61
2018-11-02T10:27:41.724Z,99955.61
2018-11-02T10:30:12.405Z,99952.80
2018-11-02T10:32:41.633Z,99957.98
2018-11-02T10:35:10.377Z,99959.30
2018-11-02T10:37:39.518Z,99969.97
2018-11-02T10:40:11.442Z,99967.56
2018-11-02T10:42:41.306Z,99967.63
2018-11-02T10:45:15.194Z,99959.47
2018-11-02T10:47:44.893Z,99962.57
2018-11-02T10:50:13.932Z,99959.00
2018-11-02T10:52:42.948Z,99960.49
2018-11-02T10:55:11.541Z,99954.41
2018-11-02T10:57:40.121Z,99953.16
2018-11-02T11:00:16.772Z,99956.03
2018-11-02T11:02:45.357Z,99955.23
2018-11-02T11:05:13.955Z,99951.55
2018-11-02T11:07:42.876Z,99956.27
2018-11-02T11:10:11.938Z,99952.14
2018-11-02T11:12:40.829Z,99956.62
2018-11-02T11:15:09.199Z,99961.25
2018-11-02T11:17:37.792Z,99960.48
2018-11-02T11:20:10.205Z,99961.15
2018-11-02T11:22:39.593Z,99960.06
2018-11-02T11:25:10.601Z,99959.81
2018-11-02T11:27:39.825Z,99957.70
2018-11-02T11:30:12.573Z,99960.46
2018-11-02T11:32:41.216Z,99961.08
2018-11-02T11:35:11.897Z,99964.39
2018-11-02T11:37:41.140Z,99967.15
2018-11-02T11:40:12.508Z,99962.20
2018-11-02T11:42:41.317Z,99959.94
2018-11-02T11:45:12.241Z,99962.59
2018-11-02T11:47:40.885Z,99963.44
2018-11-02T11:50:16.910Z,99962.89
2018-11-02T11:52:46.756Z,99963.52
2018-11-02T11:55:16.040Z,99965.34
2018-11-02T11:57:44.667Z,99961.58
2018-11-02T12:00:17.441Z,99961.80
2018-11-02T12:02:46.928Z,99959.72
2018-11-02T12:05:16.821Z,99959.30
2018-11-02T12:07:45.676Z,99964.39
2018-11-02T12:10:16.632Z,99959.69
2018-11-02T12:12:45.166Z,99965.98
2018-11-02T12:15:17.168Z,99956.95
2018-11-02T12:17:46.313Z,99955.69
2018-11-02T12:20:16.655Z,99954.16
2018-11-02T12:22:46.092Z,99956.34
2018-11-02T12:25:15.198Z,99956.39
2018-11-02T12:27:43.810Z,99956.39
2018-11-02T12:30:15.076Z,99959.66
2018-11-02T12:32:43.661Z,99964.16
2018-11-02T12:35:15.424Z,99961.97
2018-11-02T12:37:45.232Z,99967.15
2018-11-02T12:40:19.286Z,99968.40
2018-11-02T12:42:48.815Z,99966.08
2018-11-02T12:45:18.409Z,99966.84
2018-11-02T12:47:47.369Z,99970.34
2018-11-02T12:50:18.754Z,99976.58
2018-11-02T12:52:48.755Z,99979.50
2018-11-02T12:55:17.879Z,99978.78
2018-11-02T12:57:46.500Z,99982.64
2018-11-02T13:00:18.007Z,99985.49
2018-11-02T13:02:47.609Z,99988.73
2018-11-02T13:05:16.624Z,99986.19
2018-11-02T13:07:45.370Z,99992.53
2018-11-02T13:10:15.241Z,99994.42
2018-11-02T13:12:43.845Z,100005.94
2018-11-02T13:15:15.977Z,99997.30
2018-11-02T13:17:47.847Z,99994.20
2018-11-02T13:20:18.416Z,99997.12
2018-11-02T13:22:49.894Z,100006.34
2018-11-02T13:25:19.852Z,100002.70
2018-11-02T13:27:49.112Z,100005.79
2018-11-02T13:30:17.819Z,100006.15
2018-11-02T13:32:46.441Z,100014.83
2018-11-02T13:35:17.225Z,100023.14
2018-11-02T13:37:46.650Z,100019.25
2018-11-02T13:40:16.752Z,100025.80
2018-11-02T13:42:45.454Z,100026.09
2018-11-02T13:45:15.370Z,100027.45
2018-11-02T13:47:44.437Z,100031.30
2018-11-02T13:50:13.505Z,100044.14
2018-11-02T13:52:42.731Z,100035.44
2018-11-02T13:55:12.102Z,100038.41
2018-11-02T13:57:41.045Z,100046.77
2018-11-02T14:00:12.201Z,100051.01
2018-11-02T14:02:40.774Z,100056.52
2018-11-02T14:05:10.797Z,100049.22
2018-11-02T14:07:39.346Z,100051.14
2018-11-02T14:10:08.780Z,100055.08
2018-11-02T14:12:37.332Z,100052.79
2018-11-02T14:15:07.989Z,100055.07
2018-11-02T14:17:36.528Z,100052.19
2018-11-02T14:20:06.236Z,100051.91
2018-11-02T14:22:35.041Z,100056.31
2018-11-02T14:25:03.713Z,100057.83
2018-11-02T14:27:32.264Z,100071.10
2018-11-02T14:30:00.838Z,100071.47
2018-11-02T14:32:29.385Z,100070.36
2018-11-02T14:34:57.964Z,100080.00
2018-11-02T14:37:26.507Z,100073.38
2018-11-02T14:39:55.098Z,100079.33
2018-11-02T14:42:23.646Z,100075.02
2018-11-02T14:44:52.277Z,100083.89
2018-11-02T14:47:20.824Z,100080.13
2018-11-02T14:49:49.438Z,100080.84
2018-11-02T14:52:17.988Z,100083.27
2018-11-02T14:54:46.556Z,100081.05
2018-11-02T14:57:15.113Z,100085.13
2018-11-02T14:59:43.713Z,100090.16
2018-11-02T15:02:12.280Z,100087.13
2018-11-02T15:04:40.857Z,100094.38
2018-11-02T15:07:09.466Z,100101.00
2018-11-02T15:09:38.072Z,100102.03
2018-11-02T15:12:06.664Z,100098.09
2018-11-02T15:14:35.252Z,100103.68
2018-11-02T15:17:04.393Z,100105.89
2018-11-02T15:19:33.336Z,100103.21
2018-11-02T15:22:01.936Z,100109.77
2018-11-02T15:24:30.489Z,100113.09
2018-11-02T15:26:59.072Z,100124.70
2018-11-02T15:29:27.642Z,100132.95
2018-11-02T15:31:56.216Z,100137.91
2018-11-02T15:34:24.773Z,100143.09
2018-11-02T15:36:53.389Z,100143.95
2018-11-02T15:39:21.941Z,100156.14
2018-11-02T15:41:50.518Z,100157.98
2018-11-02T15:44:19.136Z,100162.63
2018-11-02T15:46:47.693Z,100167.64
2018-11-02T15:49:16.246Z,100174.88
2018-11-02T15:51:44.844Z,100178.00
2018-11-02T15:54:13.393Z,100180.15
2018-11-02T15:56:42.001Z,100182.11
2018-11-02T15:59:11.412Z,100186.86
2018-11-02T16:01:39.996Z,100192.41
2018-11-02T16:04:08.564Z,100194.84
2018-11-02T16:06:37.454Z,100194.23
2018-11-02T16:09:10.544Z,100198.05
2018-11-02T16:11:39.142Z,100196.72
2018-11-02T16:14:07.758Z,100204.89
2018-11-02T16:16:36.300Z,100208.36
2018-11-02T16:19:05.069Z,100222.70
2018-11-02T16:21:33.645Z,100219.30
2018-11-02T16:24:02.197Z,100223.29
2018-11-02T16:26:30.801Z,100226.20
2018-11-02T16:28:59.347Z,100226.98
2018-11-02T16:31:28.009Z,100244.92
2018-11-02T16:33:56.607Z,100251.53
2018-11-02T16:36:27.785Z,100253.29
2018-11-02T16:39:02.583Z,100246.08
2018-11-02T16:41:34.022Z,100243.81
2018-11-02T16:44:05.101Z,100249.66
2018-11-02T16:46:41.845Z,100252.50
2018-11-02T16:49:11.100Z,100253.41
2018-11-02T16:51:43.172Z,100258.53
2018-11-02T16:54:12.946Z,100269.41
2018-11-02T16:56:43.897Z,100280.59
2018-11-02T16:59:20.842Z,100277.41
2018-11-02T17:02:06.779Z,100282.70
2018-11-02T17:04:50.392Z,100281.84
2018-11-02T17:07:19.634Z,100287.69
2018-11-02T17:09:49.097Z,100297.56
2018-11-02T17:12:28.011Z,100295.98
2018-11-02T17:14:56.853Z,100300.23
2018-11-02T17:17:32.673Z,100296.25
2018-11-02T17:20:05.493Z,100297.19
2018-11-02T17:22:34.504Z,100307.09
2018-11-02T17:25:04.886Z,100306.66
2018-11-02T17:27:35.214Z,100304.98
2018-11-02T17:30:13.850Z,100308.48
2018-11-02T17:32:50.594Z,100310.03
2018-11-02T17:35:21.804Z,100313.66
2018-11-02T17:37:52.217Z,100318.90
2018-11-02T17:40:21.185Z,100320.83
2018-11-02T17:42:55.642Z,100332.19
2018-11-02T17:45:25.102Z,100337.05
2018-11-02T17:47:59.489Z,100353.79
2018-11-02T17:50:30.844Z,100354.84
2018-11-02T17:52:59.647Z,100355.61
2018-11-02T17:55:31.130Z,100352.17
2018-11-02T17:58:07.106Z,100362.25
2018-11-02T18:00:41.641Z,100360.84
2018-11-02T18:03:19.216Z,100365.59
2018-11-02T18:05:55.711Z,100368.64
2018-11-02T18:08:33.321Z,100373.20
2018-11-02T18:11:17.541Z,100369.23
2018-11-02T18:13:55.289Z,100371.74
2018-11-02T18:16:31.035Z,100372.13
2018-11-02T18:19:07.337Z,100369.56
2018-11-02T18:21:43.523Z,100372.79
2018-11-02T18:24:25.384Z,100373.33
2018-11-02T18:27:00.486Z,100371.79
2018-11-02T18:29:35.180Z,100378.30
2018-11-02T18:32:03.958Z,100385.42
2018-11-02T18:34:32.717Z,100387.81
2018-11-02T18:37:01.453Z,100394.16
2018-11-02T18:39:30.061Z,100399.97
2018-11-02T18:41:58.611Z,100403.08
2018-11-02T18:44:27.263Z,100396.34
2018-11-02T18:47:01.890Z,100402.67
2018-11-02T18:49:30.526Z,100396.19
2018-11-02T18:51:59.081Z,100404.05
2018-11-02T18:54:27.668Z,100400.98
2018-11-02T18:56:56.261Z,100404.37
2018-11-02T18:59:24.840Z,100399.94
2018-11-02T19:01:53.410Z,100405.62
2018-11-02T19:04:26.049Z,100414.08
2018-11-02T19:06:55.354Z,100413.16
2018-11-02T19:09:23.964Z,100410.66
2018-11-02T19:11:52.537Z,100410.25
2018-11-02T19:14:21.124Z,100417.49
2018-11-02T19:16:49.705Z,100419.31
2018-11-02T19:19:18.377Z,100427.91
2018-11-02T19:21:46.964Z,100424.54
2018-11-02T19:24:15.904Z,100435.52
2018-11-02T19:26:44.496Z,100435.41
2018-11-02T19:29:13.121Z,100428.97
2018-11-02T19:31:41.722Z,100425.75
2018-11-02T19:34:15.793Z,100432.72
2018-11-02T19:36:44.745Z,100437.73
2018-11-02T19:39:13.349Z,100440.50
2018-11-02T19:41:41.906Z,100443.53
2018-11-02T19:44:10.512Z,100448.34
2018-11-02T19:46:39.084Z,100454.95
2018-11-02T19:49:09.028Z,100448.94
2018-11-02T19:51:47.532Z,100453.69
2018-11-02T19:54:16.352Z,100465.57
2018-11-02T19:56:44.929Z,100471.84
2018-11-02T19:59:22.257Z,100473.52
2018-11-02T20:01:52.282Z,100473.91
2018-11-02T20:04:22.775Z,100472.64
2018-11-02T20:06:51.875Z,100474.00
2018-11-02T20:09:21.633Z,100469.09
2018-11-02T20:11:50.969Z,100473.70
2018-11-02T20:14:20.705Z,100471.98
2018-11-02T20:16:49.329Z,100483.20
2018-11-02T20:19:18.094Z,100495.98
2018-11-02T20:21:46.513Z,100499.47
2018-11-02T20:24:15.357Z,100506.38
2018-11-02T20:26:44.363Z,100505.91
2018-11-02T20:29:13.152Z,100506.33
2018-11-02T20:31:41.990Z,100505.61
2018-11-02T20:34:10.619Z,100511.17
2018-11-02T20:36:40.298Z,100512.05
2018-11-02T20:39:10.893Z,100508.22
2018-11-02T20:41:41.191Z,100516.52
2018-11-02T20:44:10.469Z,100507.05
2018-11-02T20:46:39.075Z,100518.59
2018-11-02T20:49:07.729Z,100514.25
2018-11-02T20:51:36.342Z,100515.39
2018-11-02T20:54:05.199Z,100512.05
2018-11-02T20:56:33.807Z,100519.05
2018-11-02T20:59:02.409Z,100518.87
2018-11-02T21:01:31.020Z,100521.81
2018-11-02T21:03:59.645Z,100521.48
2018-11-02T21:06:32.105Z,100529.05
2018-11-02T21:09:01.113Z,100528.16
2018-11-02T21:11:29.574Z,100529.13
2018-11-02T21:13:58.347Z,100525.49
2018-11-02T21:16:27.118Z,100525.25
2018-11-02T21:18:55.556Z,100533.58
2018-11-02T21:21:26.017Z,100529.25
2018-11-02T21:23:55.227Z,100523.61
2018-11-02T21:26:24.165Z,100526.34
2018-11-02T21:28:52.829Z,100528.08
2018-11-02T21:31:21.349Z,100528.41
2018-11-02T21:33:50.001Z,100528.66
2018-11-02T21:36:18.517Z,100526.98
2018-11-02T21:38:47.149Z,100534.52
2018-11-02T21:41:15.700Z,100538.44
2018-11-02T21:43:44.528Z,100533.13
2018-11-02T21:46:13.158Z,100529.72
2018-11-02T21:48:41.718Z,100522.50
2018-11-02T21:51:16.020Z,100518.67
2018-11-02T21:53:44.815Z,100517.12
2018-11-02T21:56:14.453Z,100522.09
2018-11-02T21:58:43.712Z,100526.63
2018-11-02T22:01:15.884Z,100536.63
2018-11-02T22:03:44.818Z,100533.15
2018-11-02T22:06:13.484Z,100529.19
2018-11-02T22:08:42.652Z,100522.86
2018-11-02T22:11:11.992Z,100515.06
2018-11-02T22:13:40.614Z,100520.91
2018-11-02T22:16:11.343Z,100527.91
2018-11-02T22:18:49.459Z,100527.97
2018-11-02T22:21:22.898Z,100542.78
2018-11-02T22:23:54.098Z,100546.70
2018-11-02T22:26:24.217Z,100536.77
2018-11-02T22:28:53.793Z,100538.63
2018-11-02T22:31:23.211Z,100540.36
2018-11-02T22:33:52.777Z,100541.13
2018-11-02T22:36:22.090Z,100537.91
2018-11-02T22:38:51.503Z,100529.56
2018-11-02T22:41:22.385Z,100530.75
2018-11-02T22:43:50.942Z,100529.91
2018-11-02T22:46:20.088Z,100532.70
2018-11-02T22:48:50.224Z,100534.89
2018-11-02T22:51:18.813Z,100542.38
2018-11-02T22:53:49.261Z,100551.25
2018-11-02T22:56:18.424Z,100534.56
2018-11-02T22:58:48.325Z,100534.42
2018-11-02T23:01:23.009Z,100529.48
2018-11-02T23:03:52.785Z,100526.78
2018-11-02T23:06:21.642Z,100526.06
2018-11-02T23:08:52.444Z,100527.86
2018-11-02T23:11:21.348Z,100524.98
2018-11-02T23:13:57.151Z,100525.80
2018-11-02T23:16:26.710Z,100523.65
2018-11-02T23:18:56.643Z,100525.78
2018-11-02T23:21:27.505Z,100534.05
2018-11-02T23:23:56.161Z,100533.08
2018-11-02T23:26:25.977Z,100542.39
2018-11-02T23:28:57.589Z,100534.55
2018-11-02T23:31:26.189Z,100524.48
2018-11-02T23:33:54.977Z,100530.14
2018-11-02T23:36:24.989Z,100526.27
2018-11-02T23:38:55.141Z,100524.33
2018-11-02T23:41:23.699Z,100530.29
2018-11-02T23:43:56.842Z,100535.74
2018-11-02T23:46:27.139Z,100533.02
2018-11-02T23:48:57.223Z,100528.84
2018-11-02T23:51:26.920Z,100525.81
2018-11-02T23:53:56.692Z,100524.17
2018-11-02T23:56:25.770Z,100520.20
2018-11-02T23:58:58.219Z,100523.27
